sensor_id;sensor_type;location;lat;lon;timestamp;P1;durP1;ratioP1;P2;durP2;ratioP2
17382;SDS011;8809;51.892;8.384;2023-05-29T00:02:02;4.53;;;2.33;;
17382;SDS011;8809;51.892;8.384;2023-05-29T00:04:29;5.32;;;2.88;;
17382;SDS011;8809;51.892;8.384;2023-05-29T00:06:56;5.25;;;2.33;;
17382;SDS011;8809;51.892;8.384;2023-05-29T00:09:23;7.13;;;2.70;;
17382;SDS011;8809;51.892;8.384;2023-05-29T00:11:51;5.75;;;2.72;;
17382;SDS011;8809;51.892;8.384;2023-05-29T00:14:18;5.57;;;2.45;;
17382;SDS011;8809;51.892;8.384;2023-05-29T00:16:47;6.20;;;2.60;;
17382;SDS011;8809;51.892;8.384;2023-05-29T00:19:21;7.47;;;2.80;;
17382;SDS011;8809;51.892;8.384;2023-05-29T00:22:09;5.47;;;2.30;;
17382;SDS011;8809;51.892;8.384;2023-05-29T00:24:39;9.70;;;2.88;;
17382;SDS011;8809;51.892;8.384;2023-05-29T00:27:11;6.82;;;2.72;;
17382;SDS011;8809;51.892;8.384;2023-05-29T00:29:39;7.43;;;2.40;;
17382;SDS011;8809;51.892;8.384;2023-05-29T00:32:06;6.03;;;2.85;;
17382;SDS011;8809;51.892;8.384;2023-05-29T00:34:35;9.07;;;2.63;;
17382;SDS011;8809;51.892;8.384;2023-05-29T00:37:02;8.70;;;2.63;;
17382;SDS011;8809;51.892;8.384;2023-05-29T00:39:29;5.30;;;2.50;;
17382;SDS011;8809;51.892;8.384;2023-05-29T00:41:56;8.60;;;2.70;;
17382;SDS011;8809;51.892;8.384;2023-05-29T00:44:23;8.23;;;2.40;;
17382;SDS011;8809;51.892;8.384;2023-05-29T00:46:52;7.03;;;2.80;;
17382;SDS011;8809;51.892;8.384;2023-05-29T00:49:20;5.22;;;2.28;;
17382;SDS011;8809;51.892;8.384;2023-05-29T00:51:50;5.90;;;2.25;;
17382;SDS011;8809;51.892;8.384;2023-05-29T00:54:20;5.47;;;2.42;;
17382;SDS011;8809;51.892;8.384;2023-05-29T00:56:49;6.95;;;2.60;;
17382;SDS011;8809;51.892;8.384;2023-05-29T00:59:17;6.25;;;2.45;;
17382;SDS011;8809;51.892;8.384;2023-05-29T01:01:47;7.53;;;2.88;;
17382;SDS011;8809;51.892;8.384;2023-05-29T01:04:16;6.38;;;2.22;;
17382;SDS011;8809;51.892;8.384;2023-05-29T01:06:44;10.27;;;2.60;;
17382;SDS011;8809;51.892;8.384;2023-05-29T01:09:13;8.98;;;2.60;;
17382;SDS011;8809;51.892;8.384;2023-05-29T01:11:43;6.43;;;2.20;;
17382;SDS011;8809;51.892;8.384;2023-05-29T01:14:20;7.60;;;2.45;;
17382;SDS011;8809;51.892;8.384;2023-05-29T01:16:55;6.28;;;2.40;;
17382;SDS011;8809;51.892;8.384;2023-05-29T01:19:35;8.02;;;2.58;;
17382;SDS011;8809;51.892;8.384;2023-05-29T01:22:25;7.95;;;2.55;;
17382;SDS011;8809;51.892;8.384;2023-05-29T01:25:08;5.95;;;2.55;;
17382;SDS011;8809;51.892;8.384;2023-05-29T01:27:41;7.10;;;2.30;;
17382;SDS011;8809;51.892;8.384;2023-05-29T01:30:10;7.38;;;2.65;;
17382;SDS011;8809;51.892;8.384;2023-05-29T01:32:38;5.55;;;2.72;;
17382;SDS011;8809;51.892;8.384;2023-05-29T01:35:06;6.03;;;2.55;;
17382;SDS011;8809;51.892;8.384;2023-05-29T01:37:34;5.78;;;2.47;;
17382;SDS011;8809;51.892;8.384;2023-05-29T01:40:02;10.18;;;2.72;;
17382;SDS011;8809;51.892;8.384;2023-05-29T01:42:30;7.03;;;2.55;;
17382;SDS011;8809;51.892;8.384;2023-05-29T01:45:00;8.90;;;2.88;;
17382;SDS011;8809;51.892;8.384;2023-05-29T01:47:29;6.88;;;2.75;;
17382;SDS011;8809;51.892;8.384;2023-05-29T01:49:56;6.95;;;2.38;;
17382;SDS011;8809;51.892;8.384;2023-05-29T01:52:24;11.18;;;2.65;;
17382;SDS011;8809;51.892;8.384;2023-05-29T01:54:51;6.78;;;2.22;;
17382;SDS011;8809;51.892;8.384;2023-05-29T01:57:18;5.15;;;2.50;;
17382;SDS011;8809;51.892;8.384;2023-05-29T01:59:49;6.50;;;2.38;;
17382;SDS011;8809;51.892;8.384;2023-05-29T02:02:18;7.10;;;2.67;;
17382;SDS011;8809;51.892;8.384;2023-05-29T02:04:45;4.68;;;2.10;;
17382;SDS011;8809;51.892;8.384;2023-05-29T02:07:12;5.57;;;2.08;;
17382;SDS011;8809;51.892;8.384;2023-05-29T02:09:41;6.22;;;2.33;;
17382;SDS011;8809;51.892;8.384;2023-05-29T02:12:09;8.18;;;2.75;;
17382;SDS011;8809;51.892;8.384;2023-05-29T02:14:36;7.35;;;2.22;;
17382;SDS011;8809;51.892;8.384;2023-05-29T02:17:05;5.78;;;2.10;;
17382;SDS011;8809;51.892;8.384;2023-05-29T02:19:34;4.55;;;2.38;;
17382;SDS011;8809;51.892;8.384;2023-05-29T02:22:02;6.95;;;2.15;;
17382;SDS011;8809;51.892;8.384;2023-05-29T02:24:29;3.72;;;2.00;;
17382;SDS011;8809;51.892;8.384;2023-05-29T02:26:56;4.07;;;2.00;;
17382;SDS011;8809;51.892;8.384;2023-05-29T02:29:23;7.57;;;2.20;;
17382;SDS011;8809;51.892;8.384;2023-05-29T02:31:50;4.80;;;1.80;;
17382;SDS011;8809;51.892;8.384;2023-05-29T02:34:18;3.38;;;1.77;;
17382;SDS011;8809;51.892;8.384;2023-05-29T02:36:49;4.80;;;2.10;;
17382;SDS011;8809;51.892;8.384;2023-05-29T02:39:17;4.82;;;2.00;;
17382;SDS011;8809;51.892;8.384;2023-05-29T02:41:45;4.53;;;2.08;;
17382;SDS011;8809;51.892;8.384;2023-05-29T02:44:12;5.63;;;2.28;;
17382;SDS011;8809;51.892;8.384;2023-05-29T02:46:40;7.80;;;2.67;;
17382;SDS011;8809;51.892;8.384;2023-05-29T02:49:07;5.63;;;2.00;;
17382;SDS011;8809;51.892;8.384;2023-05-29T02:51:34;5.88;;;2.20;;
17382;SDS011;8809;51.892;8.384;2023-05-29T02:54:04;6.88;;;2.33;;
17382;SDS011;8809;51.892;8.384;2023-05-29T02:56:31;5.07;;;2.63;;
17382;SDS011;8809;51.892;8.384;2023-05-29T02:59:00;5.40;;;2.00;;
17382;SDS011;8809;51.892;8.384;2023-05-29T03:01:27;6.78;;;2.33;;
17382;SDS011;8809;51.892;8.384;2023-05-29T03:03:54;3.42;;;1.90;;
17382;SDS011;8809;51.892;8.384;2023-05-29T03:06:28;4.30;;;1.98;;
17382;SDS011;8809;51.892;8.384;2023-05-29T03:08:55;5.03;;;2.35;;
17382;SDS011;8809;51.892;8.384;2023-05-29T03:11:26;5.60;;;2.00;;
17382;SDS011;8809;51.892;8.384;2023-05-29T03:13:54;7.05;;;2.13;;
17382;SDS011;8809;51.892;8.384;2023-05-29T03:16:21;7.00;;;2.10;;
17382;SDS011;8809;51.892;8.384;2023-05-29T03:18:48;4.10;;;1.92;;
17382;SDS011;8809;51.892;8.384;2023-05-29T03:21:15;3.63;;;2.08;;
17382;SDS011;8809;51.892;8.384;2023-05-29T03:23:44;4.43;;;2.25;;
17382;SDS011;8809;51.892;8.384;2023-05-29T03:26:11;4.70;;;2.05;;
17382;SDS011;8809;51.892;8.384;2023-05-29T03:28:40;3.80;;;2.10;;
17382;SDS011;8809;51.892;8.384;2023-05-29T03:31:07;7.97;;;2.20;;
17382;SDS011;8809;51.892;8.384;2023-05-29T03:33:35;7.72;;;2.90;;
17382;SDS011;8809;51.892;8.384;2023-05-29T03:36:02;5.72;;;2.30;;
17382;SDS011;8809;51.892;8.384;2023-05-29T03:38:30;5.70;;;2.10;;
17382;SDS011;8809;51.892;8.384;2023-05-29T03:40:57;8.30;;;2.20;;
17382;SDS011;8809;51.892;8.384;2023-05-29T03:43:24;6.07;;;2.30;;
17382;SDS011;8809;51.892;8.384;2023-05-29T03:45:53;4.70;;;2.03;;
17382;SDS011;8809;51.892;8.384;2023-05-29T03:48:20;6.28;;;2.17;;
17382;SDS011;8809;51.892;8.384;2023-05-29T03:50:47;6.18;;;2.40;;
17382;SDS011;8809;51.892;8.384;2023-05-29T03:53:15;5.75;;;2.38;;
17382;SDS011;8809;51.892;8.384;2023-05-29T03:55:43;8.27;;;2.55;;
17382;SDS011;8809;51.892;8.384;2023-05-29T03:58:10;8.25;;;2.58;;
17382;SDS011;8809;51.892;8.384;2023-05-29T04:00:39;5.95;;;2.20;;
17382;SDS011;8809;51.892;8.384;2023-05-29T04:03:08;4.25;;;2.28;;
17382;SDS011;8809;51.892;8.384;2023-05-29T04:05:36;4.00;;;1.92;;
17382;SDS011;8809;51.892;8.384;2023-05-29T04:08:03;7.40;;;2.28;;
17382;SDS011;8809;51.892;8.384;2023-05-29T04:10:34;4.60;;;1.70;;
17382;SDS011;8809;51.892;8.384;2023-05-29T04:13:05;6.65;;;2.17;;
17382;SDS011;8809;51.892;8.384;2023-05-29T04:15:32;8.20;;;2.13;;
17382;SDS011;8809;51.892;8.384;2023-05-29T04:18:00;5.97;;;2.20;;
17382;SDS011;8809;51.892;8.384;2023-05-29T04:20:29;6.38;;;1.88;;
17382;SDS011;8809;51.892;8.384;2023-05-29T04:22:56;5.43;;;1.70;;
17382;SDS011;8809;51.892;8.384;2023-05-29T04:25:23;3.92;;;1.58;;
17382;SDS011;8809;51.892;8.384;2023-05-29T04:27:51;5.00;;;2.17;;
17382;SDS011;8809;51.892;8.384;2023-05-29T04:30:18;8.02;;;2.60;;
17382;SDS011;8809;51.892;8.384;2023-05-29T04:32:46;5.47;;;1.73;;
17382;SDS011;8809;51.892;8.384;2023-05-29T04:35:13;6.50;;;2.30;;
17382;SDS011;8809;51.892;8.384;2023-05-29T04:37:42;6.82;;;2.00;;
17382;SDS011;8809;51.892;8.384;2023-05-29T04:40:09;6.60;;;2.15;;
17382;SDS011;8809;51.892;8.384;2023-05-29T04:42:37;7.97;;;2.30;;
17382;SDS011;8809;51.892;8.384;2023-05-29T04:45:06;7.60;;;2.03;;
17382;SDS011;8809;51.892;8.384;2023-05-29T04:47:35;12.20;;;2.78;;
17382;SDS011;8809;51.892;8.384;2023-05-29T04:50:09;6.85;;;2.05;;
17382;SDS011;8809;51.892;8.384;2023-05-29T04:52:37;6.55;;;2.50;;
17382;SDS011;8809;51.892;8.384;2023-05-29T04:55:06;6.57;;;1.80;;
17382;SDS011;8809;51.892;8.384;2023-05-29T04:57:33;7.43;;;2.80;;
17382;SDS011;8809;51.892;8.384;2023-05-29T05:00:01;7.05;;;2.60;;
17382;SDS011;8809;51.892;8.384;2023-05-29T05:02:30;6.53;;;1.95;;
17382;SDS011;8809;51.892;8.384;2023-05-29T05:04:57;8.80;;;2.55;;
17382;SDS011;8809;51.892;8.384;2023-05-29T05:07:25;6.75;;;1.98;;
17382;SDS011;8809;51.892;8.384;2023-05-29T05:09:52;5.13;;;1.92;;
17382;SDS011;8809;51.892;8.384;2023-05-29T05:12:20;5.28;;;1.98;;
17382;SDS011;8809;51.892;8.384;2023-05-29T05:14:47;6.40;;;2.08;;
17382;SDS011;8809;51.892;8.384;2023-05-29T05:17:14;5.22;;;1.65;;
17382;SDS011;8809;51.892;8.384;2023-05-29T05:19:42;5.40;;;1.60;;
17382;SDS011;8809;51.892;8.384;2023-05-29T05:22:09;4.60;;;1.90;;
17382;SDS011;8809;51.892;8.384;2023-05-29T05:24:36;3.15;;;1.55;;
17382;SDS011;8809;51.892;8.384;2023-05-29T05:27:03;5.35;;;1.77;;
17382;SDS011;8809;51.892;8.384;2023-05-29T05:29:32;8.10;;;2.00;;
17382;SDS011;8809;51.892;8.384;2023-05-29T05:32:00;3.80;;;1.70;;
17382;SDS011;8809;51.892;8.384;2023-05-29T05:34:27;3.80;;;1.52;;
17382;SDS011;8809;51.892;8.384;2023-05-29T05:36:54;6.03;;;1.90;;
17382;SDS011;8809;51.892;8.384;2023-05-29T05:39:21;4.78;;;1.67;;
17382;SDS011;8809;51.892;8.384;2023-05-29T05:41:48;4.78;;;1.80;;
17382;SDS011;8809;51.892;8.384;2023-05-29T05:44:15;4.18;;;2.00;;
17382;SDS011;8809;51.892;8.384;2023-05-29T05:46:44;4.95;;;1.92;;
17382;SDS011;8809;51.892;8.384;2023-05-29T05:49:11;4.70;;;2.10;;
17382;SDS011;8809;51.892;8.384;2023-05-29T05:51:38;5.93;;;2.05;;
17382;SDS011;8809;51.892;8.384;2023-05-29T05:54:05;5.28;;;1.67;;
17382;SDS011;8809;51.892;8.384;2023-05-29T05:56:32;5.10;;;2.15;;
17382;SDS011;8809;51.892;8.384;2023-05-29T05:59:02;4.78;;;1.92;;
17382;SDS011;8809;51.892;8.384;2023-05-29T06:01:29;3.55;;;1.60;;
17382;SDS011;8809;51.892;8.384;2023-05-29T06:03:58;4.40;;;2.03;;
17382;SDS011;8809;51.892;8.384;2023-05-29T06:06:25;5.50;;;1.70;;
17382;SDS011;8809;51.892;8.384;2023-05-29T06:08:52;5.78;;;1.90;;
17382;SDS011;8809;51.892;8.384;2023-05-29T06:11:19;4.82;;;1.60;;
17382;SDS011;8809;51.892;8.384;2023-05-29T06:13:46;5.13;;;1.50;;
17382;SDS011;8809;51.892;8.384;2023-05-29T06:16:14;3.30;;;1.33;;
17382;SDS011;8809;51.892;8.384;2023-05-29T06:18:41;3.92;;;1.45;;
17382;SDS011;8809;51.892;8.384;2023-05-29T06:21:11;6.68;;;2.13;;
17382;SDS011;8809;51.892;8.384;2023-05-29T06:23:38;6.18;;;1.77;;
17382;SDS011;8809;51.892;8.384;2023-05-29T06:26:06;4.18;;;1.58;;
17382;SDS011;8809;51.892;8.384;2023-05-29T06:28:34;4.43;;;1.55;;
17382;SDS011;8809;51.892;8.384;2023-05-29T06:31:01;5.78;;;1.83;;
17382;SDS011;8809;51.892;8.384;2023-05-29T06:33:28;3.88;;;1.42;;
17382;SDS011;8809;51.892;8.384;2023-05-29T06:35:56;3.72;;;1.52;;
17382;SDS011;8809;51.892;8.384;2023-05-29T06:38:25;5.00;;;1.83;;
17382;SDS011;8809;51.892;8.384;2023-05-29T06:40:52;3.88;;;1.50;;
17382;SDS011;8809;51.892;8.384;2023-05-29T06:43:19;2.80;;;1.42;;
17382;SDS011;8809;51.892;8.384;2023-05-29T06:45:46;4.03;;;1.70;;
17382;SDS011;8809;51.892;8.384;2023-05-29T06:48:13;3.22;;;1.35;;
17382;SDS011;8809;51.892;8.384;2023-05-29T06:50:41;3.30;;;1.40;;
17382;SDS011;8809;51.892;8.384;2023-05-29T06:53:08;4.45;;;1.80;;
17382;SDS011;8809;51.892;8.384;2023-05-29T06:55:39;6.88;;;1.77;;
17382;SDS011;8809;51.892;8.384;2023-05-29T06:58:07;2.60;;;1.50;;
17382;SDS011;8809;51.892;8.384;2023-05-29T07:00:34;6.57;;;2.08;;
17382;SDS011;8809;51.892;8.384;2023-05-29T07:03:01;3.65;;;1.60;;
17382;SDS011;8809;51.892;8.384;2023-05-29T07:05:28;5.35;;;1.77;;
17382;SDS011;8809;51.892;8.384;2023-05-29T07:07:55;6.88;;;1.77;;
17382;SDS011;8809;51.892;8.384;2023-05-29T07:10:22;6.50;;;2.28;;
17382;SDS011;8809;51.892;8.384;2023-05-29T07:12:51;6.72;;;1.92;;
17382;SDS011;8809;51.892;8.384;2023-05-29T07:15:18;6.20;;;1.80;;
17382;SDS011;8809;51.892;8.384;2023-05-29T07:17:46;4.95;;;2.20;;
17382;SDS011;8809;51.892;8.384;2023-05-29T07:20:13;8.35;;;2.20;;
17382;SDS011;8809;51.892;8.384;2023-05-29T07:22:45;4.78;;;1.92;;
17382;SDS011;8809;51.892;8.384;2023-05-29T07:25:12;5.45;;;1.75;;
17382;SDS011;8809;51.892;8.384;2023-05-29T07:27:39;6.88;;;1.77;;
17382;SDS011;8809;51.892;8.384;2023-05-29T07:30:18;4.65;;;1.50;;
17382;SDS011;8809;51.892;8.384;2023-05-29T07:32:47;6.68;;;2.53;;
17382;SDS011;8809;51.892;8.384;2023-05-29T07:35:14;5.28;;;2.15;;
17382;SDS011;8809;51.892;8.384;2023-05-29T07:37:41;4.82;;;1.67;;
17382;SDS011;8809;51.892;8.384;2023-05-29T07:40:09;6.15;;;2.15;;
17382;SDS011;8809;51.892;8.384;2023-05-29T07:42:37;4.35;;;1.60;;
17382;SDS011;8809;51.892;8.384;2023-05-29T07:45:04;3.50;;;1.50;;
17382;SDS011;8809;51.892;8.384;2023-05-29T07:47:33;6.53;;;2.17;;
17382;SDS011;8809;51.892;8.384;2023-05-29T07:50:00;4.95;;;1.80;;
17382;SDS011;8809;51.892;8.384;2023-05-29T07:52:28;4.35;;;1.60;;
17382;SDS011;8809;51.892;8.384;2023-05-29T07:54:55;3.20;;;1.65;;
17382;SDS011;8809;51.892;8.384;2023-05-29T07:57:22;5.82;;;2.00;;
17382;SDS011;8809;51.892;8.384;2023-05-29T07:59:50;6.85;;;1.83;;
17382;SDS011;8809;51.892;8.384;2023-05-29T08:02:17;6.25;;;1.80;;
17382;SDS011;8809;51.892;8.384;2023-05-29T08:04:46;5.95;;;2.00;;
17382;SDS011;8809;51.892;8.384;2023-05-29T08:07:13;7.47;;;1.77;;
17382;SDS011;8809;51.892;8.384;2023-05-29T08:09:42;5.97;;;2.25;;
17382;SDS011;8809;51.892;8.384;2023-05-29T08:12:09;5.25;;;1.70;;
17382;SDS011;8809;51.892;8.384;2023-05-29T08:14:36;4.72;;;1.63;;
17382;SDS011;8809;51.892;8.384;2023-05-29T08:17:03;4.50;;;1.55;;
17382;SDS011;8809;51.892;8.384;2023-05-29T08:19:32;4.60;;;1.60;;
17382;SDS011;8809;51.892;8.384;2023-05-29T08:22:00;3.63;;;1.83;;
17382;SDS011;8809;51.892;8.384;2023-05-29T08:24:28;5.15;;;1.70;;
17382;SDS011;8809;51.892;8.384;2023-05-29T08:26:55;6.75;;;1.73;;
17382;SDS011;8809;51.892;8.384;2023-05-29T08:29:23;4.00;;;1.50;;
17382;SDS011;8809;51.892;8.384;2023-05-29T08:31:51;3.97;;;1.50;;
17382;SDS011;8809;51.892;8.384;2023-05-29T08:34:18;5.00;;;1.73;;
17382;SDS011;8809;51.892;8.384;2023-05-29T08:36:45;4.88;;;1.90;;
17382;SDS011;8809;51.892;8.384;2023-05-29T08:39:15;7.20;;;2.25;;
17382;SDS011;8809;51.892;8.384;2023-05-29T08:41:46;6.32;;;2.40;;
17382;SDS011;8809;51.892;8.384;2023-05-29T08:44:22;5.63;;;1.60;;
17382;SDS011;8809;51.892;8.384;2023-05-29T08:46:50;4.82;;;1.98;;
17382;SDS011;8809;51.892;8.384;2023-05-29T08:49:22;5.93;;;1.70;;
17382;SDS011;8809;51.892;8.384;2023-05-29T08:51:53;5.13;;;1.83;;
17382;SDS011;8809;51.892;8.384;2023-05-29T08:54:29;5.38;;;1.85;;
17382;SDS011;8809;51.892;8.384;2023-05-29T08:56:59;5.45;;;2.10;;
17382;SDS011;8809;51.892;8.384;2023-05-29T08:59:30;5.45;;;1.60;;
17382;SDS011;8809;51.892;8.384;2023-05-29T09:01:57;4.65;;;1.58;;
17382;SDS011;8809;51.892;8.384;2023-05-29T09:04:24;8.70;;;2.03;;
17382;SDS011;8809;51.892;8.384;2023-05-29T09:07:34;5.00;;;1.58;;
17382;SDS011;8809;51.892;8.384;2023-05-29T09:10:37;6.43;;;1.75;;
17382;SDS011;8809;51.892;8.384;2023-05-29T09:13:26;4.28;;;1.58;;
17382;SDS011;8809;51.892;8.384;2023-05-29T09:15:56;4.25;;;1.67;;
17382;SDS011;8809;51.892;8.384;2023-05-29T09:18:25;4.43;;;1.70;;
17382;SDS011;8809;51.892;8.384;2023-05-29T09:20:55;5.38;;;1.80;;
17382;SDS011;8809;51.892;8.384;2023-05-29T09:23:24;6.65;;;1.95;;
17382;SDS011;8809;51.892;8.384;2023-05-29T09:25:54;5.25;;;1.50;;
17382;SDS011;8809;51.892;8.384;2023-05-29T09:28:21;5.40;;;1.58;;
17382;SDS011;8809;51.892;8.384;2023-05-29T09:30:51;5.47;;;1.77;;
17382;SDS011;8809;51.892;8.384;2023-05-29T09:33:18;5.38;;;2.00;;
17382;SDS011;8809;51.892;8.384;2023-05-29T09:35:47;4.68;;;1.55;;
17382;SDS011;8809;51.892;8.384;2023-05-29T09:38:16;4.28;;;1.55;;
17382;SDS011;8809;51.892;8.384;2023-05-29T09:40:44;5.75;;;1.75;;
17382;SDS011;8809;51.892;8.384;2023-05-29T09:43:16;3.25;;;1.67;;
17382;SDS011;8809;51.892;8.384;2023-05-29T09:45:47;5.65;;;1.80;;
17382;SDS011;8809;51.892;8.384;2023-05-29T09:48:15;2.40;;;1.23;;
17382;SDS011;8809;51.892;8.384;2023-05-29T09:50:46;5.45;;;1.70;;
17382;SDS011;8809;51.892;8.384;2023-05-29T09:53:18;5.30;;;1.67;;
17382;SDS011;8809;51.892;8.384;2023-05-29T09:55:46;4.68;;;1.50;;
17382;SDS011;8809;51.892;8.384;2023-05-29T09:58:15;4.13;;;1.50;;
17382;SDS011;8809;51.892;8.384;2023-05-29T10:00:44;4.95;;;1.60;;
17382;SDS011;8809;51.892;8.384;2023-05-29T10:03:14;3.08;;;1.38;;
17382;SDS011;8809;51.892;8.384;2023-05-29T10:05:42;2.95;;;1.60;;
17382;SDS011;8809;51.892;8.384;2023-05-29T10:08:11;5.38;;;1.77;;
17382;SDS011;8809;51.892;8.384;2023-05-29T10:10:40;5.20;;;2.10;;
17382;SDS011;8809;51.892;8.384;2023-05-29T10:13:12;5.00;;;2.22;;
17382;SDS011;8809;51.892;8.384;2023-05-29T10:15:44;5.35;;;1.90;;
17382;SDS011;8809;51.892;8.384;2023-05-29T10:18:13;5.35;;;2.00;;
17382;SDS011;8809;51.892;8.384;2023-05-29T10:20:47;5.22;;;1.50;;
17382;SDS011;8809;51.892;8.384;2023-05-29T10:23:18;5.72;;;2.05;;
17382;SDS011;8809;51.892;8.384;2023-05-29T10:25:49;3.63;;;1.60;;
17382;SDS011;8809;51.892;8.384;2023-05-29T10:28:18;3.67;;;1.63;;
17382;SDS011;8809;51.892;8.384;2023-05-29T10:30:49;4.53;;;2.08;;
17382;SDS011;8809;51.892;8.384;2023-05-29T10:33:23;4.10;;;1.60;;
17382;SDS011;8809;51.892;8.384;2023-05-29T10:36:05;2.83;;;1.42;;
17382;SDS011;8809;51.892;8.384;2023-05-29T10:38:36;5.75;;;2.00;;
17382;SDS011;8809;51.892;8.384;2023-05-29T10:43:58;5.18;;;1.77;;
17382;SDS011;8809;51.892;8.384;2023-05-29T10:49:31;6.32;;;2.15;;
17382;SDS011;8809;51.892;8.384;2023-05-29T10:52:00;5.93;;;2.22;;
17382;SDS011;8809;51.892;8.384;2023-05-29T10:54:39;3.70;;;1.63;;
17382;SDS011;8809;51.892;8.384;2023-05-29T10:57:17;3.25;;;1.67;;
17382;SDS011;8809;51.892;8.384;2023-05-29T10:59:45;5.63;;;1.98;;
17382;SDS011;8809;51.892;8.384;2023-05-29T11:02:18;7.38;;;2.00;;
17382;SDS011;8809;51.892;8.384;2023-05-29T11:05:03;3.00;;;1.60;;
17382;SDS011;8809;51.892;8.384;2023-05-29T11:07:33;3.75;;;1.58;;
17382;SDS011;8809;51.892;8.384;2023-05-29T11:13:07;3.83;;;1.65;;
17382;SDS011;8809;51.892;8.384;2023-05-29T11:15:35;3.97;;;1.73;;
17382;SDS011;8809;51.892;8.384;2023-05-29T11:18:10;3.35;;;1.63;;
17382;SDS011;8809;51.892;8.384;2023-05-29T11:20:43;3.00;;;1.50;;
17382;SDS011;8809;51.892;8.384;2023-05-29T11:23:17;5.50;;;2.05;;
17382;SDS011;8809;51.892;8.384;2023-05-29T11:25:45;3.97;;;1.60;;
17382;SDS011;8809;51.892;8.384;2023-05-29T11:28:14;5.93;;;1.75;;
17382;SDS011;8809;51.892;8.384;2023-05-29T11:30:42;5.00;;;2.00;;
17382;SDS011;8809;51.892;8.384;2023-05-29T11:33:13;1.65;;;1.40;;
17382;SDS011;8809;51.892;8.384;2023-05-29T11:35:51;3.65;;;1.40;;
17382;SDS011;8809;51.892;8.384;2023-05-29T11:38:23;5.07;;;1.85;;
17382;SDS011;8809;51.892;8.384;2023-05-29T11:40:50;3.35;;;1.73;;
17382;SDS011;8809;51.892;8.384;2023-05-29T11:43:20;2.45;;;1.30;;
17382;SDS011;8809;51.892;8.384;2023-05-29T11:45:53;2.58;;;1.38;;
17382;SDS011;8809;51.892;8.384;2023-05-29T11:48:22;2.30;;;1.40;;
17382;SDS011;8809;51.892;8.384;2023-05-29T11:50:49;2.85;;;1.48;;
17382;SDS011;8809;51.892;8.384;2023-05-29T11:53:18;4.15;;;1.50;;
17382;SDS011;8809;51.892;8.384;2023-05-29T11:55:46;2.97;;;1.60;;
17382;SDS011;8809;51.892;8.384;2023-05-29T11:58:16;3.85;;;1.60;;
17382;SDS011;8809;51.892;8.384;2023-05-29T12:00:55;3.25;;;1.40;;
17382;SDS011;8809;51.892;8.384;2023-05-29T12:03:23;3.42;;;1.50;;
17382;SDS011;8809;51.892;8.384;2023-05-29T12:05:51;3.65;;;1.42;;
17382;SDS011;8809;51.892;8.384;2023-05-29T12:08:21;1.88;;;1.30;;
17382;SDS011;8809;51.892;8.384;2023-05-29T12:10:51;2.97;;;1.38;;
17382;SDS011;8809;51.892;8.384;2023-05-29T12:13:24;3.22;;;1.42;;
17382;SDS011;8809;51.892;8.384;2023-05-29T12:15:53;2.65;;;1.50;;
17382;SDS011;8809;51.892;8.384;2023-05-29T12:18:27;3.75;;;1.65;;
17382;SDS011;8809;51.892;8.384;2023-05-29T12:20:58;3.88;;;1.98;;
17382;SDS011;8809;51.892;8.384;2023-05-29T12:23:27;5.78;;;1.70;;
17382;SDS011;8809;51.892;8.384;2023-05-29T12:25:55;5.47;;;1.98;;
17382;SDS011;8809;51.892;8.384;2023-05-29T12:28:23;3.72;;;1.60;;
17382;SDS011;8809;51.892;8.384;2023-05-29T12:30:50;4.75;;;1.73;;
17382;SDS011;8809;51.892;8.384;2023-05-29T12:33:24;2.35;;;1.45;;
17382;SDS011;8809;51.892;8.384;2023-05-29T12:36:00;4.25;;;1.85;;
17382;SDS011;8809;51.892;8.384;2023-05-29T12:38:28;2.67;;;1.48;;
17382;SDS011;8809;51.892;8.384;2023-05-29T12:40:56;3.55;;;1.65;;
17382;SDS011;8809;51.892;8.384;2023-05-29T12:43:23;2.20;;;1.30;;
17382;SDS011;8809;51.892;8.384;2023-05-29T12:45:54;4.72;;;1.90;;
17382;SDS011;8809;51.892;8.384;2023-05-29T12:48:27;3.47;;;1.60;;
17382;SDS011;8809;51.892;8.384;2023-05-29T12:50:54;2.90;;;1.42;;
17382;SDS011;8809;51.892;8.384;2023-05-29T12:53:27;6.10;;;1.90;;
17382;SDS011;8809;51.892;8.384;2023-05-29T12:55:56;4.88;;;1.80;;
17382;SDS011;8809;51.892;8.384;2023-05-29T12:58:23;4.35;;;1.90;;
17382;SDS011;8809;51.892;8.384;2023-05-29T13:00:52;3.30;;;1.70;;
17382;SDS011;8809;51.892;8.384;2023-05-29T13:03:21;5.25;;;2.17;;
17382;SDS011;8809;51.892;8.384;2023-05-29T13:05:51;3.25;;;1.90;;
17382;SDS011;8809;51.892;8.384;2023-05-29T13:08:19;3.25;;;1.92;;
17382;SDS011;8809;51.892;8.384;2023-05-29T13:10:46;3.88;;;1.55;;
17382;SDS011;8809;51.892;8.384;2023-05-29T13:13:15;4.10;;;1.85;;
17382;SDS011;8809;51.892;8.384;2023-05-29T13:15:46;4.47;;;2.00;;
17382;SDS011;8809;51.892;8.384;2023-05-29T13:18:16;3.97;;;1.70;;
17382;SDS011;8809;51.892;8.384;2023-05-29T13:20:44;5.43;;;1.85;;
17382;SDS011;8809;51.892;8.384;2023-05-29T13:23:12;2.90;;;1.60;;
17382;SDS011;8809;51.892;8.384;2023-05-29T13:25:40;3.95;;;1.90;;
17382;SDS011;8809;51.892;8.384;2023-05-29T13:28:07;2.42;;;1.70;;
17382;SDS011;8809;51.892;8.384;2023-05-29T13:30:35;4.28;;;1.83;;
17382;SDS011;8809;51.892;8.384;2023-05-29T13:33:05;5.30;;;2.03;;
17382;SDS011;8809;51.892;8.384;2023-05-29T13:35:32;4.75;;;1.85;;
17382;SDS011;8809;51.892;8.384;2023-05-29T13:38:00;3.08;;;1.63;;
17382;SDS011;8809;51.892;8.384;2023-05-29T13:40:29;4.05;;;1.80;;
17382;SDS011;8809;51.892;8.384;2023-05-29T13:42:57;4.15;;;1.90;;
17382;SDS011;8809;51.892;8.384;2023-05-29T13:45:24;4.03;;;1.80;;
17382;SDS011;8809;51.892;8.384;2023-05-29T13:47:53;3.38;;;1.95;;
17382;SDS011;8809;51.892;8.384;2023-05-29T13:50:21;3.20;;;1.73;;
17382;SDS011;8809;51.892;8.384;2023-05-29T13:52:49;3.08;;;1.60;;
17382;SDS011;8809;51.892;8.384;2023-05-29T13:55:17;3.83;;;1.90;;
17382;SDS011;8809;51.892;8.384;2023-05-29T13:57:48;5.20;;;2.03;;
17382;SDS011;8809;51.892;8.384;2023-05-29T14:00:19;5.93;;;2.08;;
17382;SDS011;8809;51.892;8.384;2023-05-29T14:02:46;4.47;;;1.90;;
17382;SDS011;8809;51.892;8.384;2023-05-29T14:05:14;5.22;;;2.17;;
17382;SDS011;8809;51.892;8.384;2023-05-29T14:07:42;2.78;;;1.75;;
17382;SDS011;8809;51.892;8.384;2023-05-29T14:10:12;3.42;;;2.00;;
17382;SDS011;8809;51.892;8.384;2023-05-29T14:12:40;4.53;;;2.00;;
17382;SDS011;8809;51.892;8.384;2023-05-29T14:15:09;3.80;;;1.80;;
17382;SDS011;8809;51.892;8.384;2023-05-29T14:17:37;4.18;;;2.15;;
17382;SDS011;8809;51.892;8.384;2023-05-29T14:20:04;5.63;;;2.15;;
17382;SDS011;8809;51.892;8.384;2023-05-29T14:22:34;3.92;;;1.83;;
17382;SDS011;8809;51.892;8.384;2023-05-29T14:25:02;4.13;;;1.98;;
17382;SDS011;8809;51.892;8.384;2023-05-29T14:27:31;3.22;;;1.88;;
17382;SDS011;8809;51.892;8.384;2023-05-29T14:29:59;2.72;;;1.73;;
17382;SDS011;8809;51.892;8.384;2023-05-29T14:32:28;1.83;;;1.30;;
17382;SDS011;8809;51.892;8.384;2023-05-29T14:34:55;5.25;;;1.88;;
17382;SDS011;8809;51.892;8.384;2023-05-29T14:37:31;3.10;;;1.80;;
17382;SDS011;8809;51.892;8.384;2023-05-29T14:39:58;3.78;;;1.80;;
17382;SDS011;8809;51.892;8.384;2023-05-29T14:42:25;3.78;;;1.98;;
17382;SDS011;8809;51.892;8.384;2023-05-29T14:44:53;5.28;;;1.70;;
17382;SDS011;8809;51.892;8.384;2023-05-29T14:47:22;4.25;;;2.10;;
17382;SDS011;8809;51.892;8.384;2023-05-29T14:49:51;5.80;;;2.22;;
17382;SDS011;8809;51.892;8.384;2023-05-29T14:52:19;2.95;;;1.83;;
17382;SDS011;8809;51.892;8.384;2023-05-29T14:54:46;4.35;;;1.85;;
17382;SDS011;8809;51.892;8.384;2023-05-29T14:57:14;3.15;;;1.85;;
17382;SDS011;8809;51.892;8.384;2023-05-29T14:59:42;4.00;;;1.80;;
17382;SDS011;8809;51.892;8.384;2023-05-29T15:02:11;4.45;;;1.90;;
17382;SDS011;8809;51.892;8.384;2023-05-29T15:04:38;4.13;;;1.98;;
17382;SDS011;8809;51.892;8.384;2023-05-29T15:07:07;4.40;;;1.63;;
17382;SDS011;8809;51.892;8.384;2023-05-29T15:09:35;4.80;;;1.90;;
17382;SDS011;8809;51.892;8.384;2023-05-29T15:12:02;5.18;;;1.80;;
17382;SDS011;8809;51.892;8.384;2023-05-29T15:14:33;3.55;;;1.90;;
17382;SDS011;8809;51.892;8.384;2023-05-29T15:17:00;4.15;;;1.90;;
17382;SDS011;8809;51.892;8.384;2023-05-29T15:19:28;4.95;;;1.75;;
17382;SDS011;8809;51.892;8.384;2023-05-29T15:21:56;3.72;;;1.95;;